createdAt,value
2018-12-03T00:00:10.023Z,60.40
2018-12-03T00:02:40.256Z,60.00
2018-12-03T00:05:10.646Z,62.97
2018-12-03T00:07:41.010Z,60.70
2018-12-03T00:10:11.773Z,60.20
2018-12-03T00:12:41.964Z,61.87
2018-12-03T00:15:12.301Z,63.87
2018-12-03T00:17:42.696Z,59.00
2018-12-03T00:20:13.187Z,61.73
2018-12-03T00:22:43.469Z,61.13
2018-12-03T00:25:13.824Z,63.80
2018-12-03T00:27:52.555Z,61.37
2018-12-03T00:30:23.141Z,64.33
2018-12-03T00:32:53.398Z,58.70
2018-12-03T00:35:23.837Z,60.73
2018-12-03T00:37:54.031Z,60.37
2018-12-03T00:40:24.363Z,62.73
2018-12-03T00:42:54.712Z,60.37
2018-12-03T00:45:25.129Z,66.37
2018-12-03T00:47:55.649Z,61.00
2018-12-03T00:50:32.431Z,60.73
2018-12-03T00:53:02.798Z,60.57
2018-12-03T00:55:33.170Z,63.07
2018-12-03T00:58:03.420Z,64.50
2018-12-03T01:00:33.663Z,54.97
2018-12-03T01:03:03.953Z,59.43
2018-12-03T01:05:34.410Z,56.30
2018-12-03T01:08:04.677Z,56.33
2018-12-03T01:10:35.036Z,54.93
2018-12-03T01:13:05.768Z,56.77
2018-12-03T01:15:36.074Z,58.20
2018-12-03T01:18:06.535Z,59.27
2018-12-03T01:20:36.851Z,56.33
2018-12-03T01:23:07.279Z,53.90
2018-12-03T01:25:38.498Z,56.97
2018-12-03T01:28:08.943Z,55.90
2018-12-03T01:30:39.243Z,56.67
2018-12-03T01:33:09.393Z,60.47
2018-12-03T01:35:39.597Z,52.07
2018-12-03T01:38:09.874Z,58.20
2018-12-03T01:40:40.163Z,54.33
2018-12-03T01:43:10.699Z,56.13
2018-12-03T01:45:40.983Z,55.43
2018-12-03T01:48:11.230Z,52.80
2018-12-03T01:50:41.491Z,54.23
2018-12-03T01:53:11.838Z,53.83
2018-12-03T01:55:42.371Z,51.77
2018-12-03T01:58:12.715Z,53.80
2018-12-03T02:00:42.946Z,53.73
2018-12-03T02:03:13.289Z,53.13
2018-12-03T02:05:43.700Z,53.37
2018-12-03T02:08:13.893Z,55.00
2018-12-03T02:10:44.245Z,56.10
2018-12-03T02:13:14.577Z,52.00
2018-12-03T02:15:44.999Z,55.97
2018-12-03T02:18:15.467Z,55.43
2018-12-03T02:20:45.699Z,52.30
2018-12-03T02:23:16.007Z,50.50
2018-12-03T02:25:46.519Z,55.60
2018-12-03T02:28:16.954Z,58.03
2018-12-03T02:30:52.468Z,51.40
2018-12-03T02:33:22.941Z,52.50
2018-12-03T02:35:53.074Z,55.17
2018-12-03T02:38:23.379Z,51.60
2018-12-03T02:40:53.888Z,49.70
2018-12-03T02:43:24.432Z,53.43
2018-12-03T02:45:54.591Z,50.40
2018-12-03T02:48:24.960Z,51.60
2018-12-03T02:50:55.285Z,51.50
2018-12-03T02:53:25.514Z,54.83
2018-12-03T02:55:55.922Z,54.30
2018-12-03T02:58:26.319Z,50.73
2018-12-03T03:00:56.575Z,54.33
2018-12-03T03:03:26.889Z,52.97
2018-12-03T03:05:57.210Z,51.57
2018-12-03T03:08:27.689Z,55.30
2018-12-03T03:10:57.988Z,51.27
2018-12-03T03:13:28.120Z,53.67
2018-12-03T03:15:58.471Z,52.93
2018-12-03T03:18:28.882Z,50.27
2018-12-03T03:20:59.061Z,54.97
2018-12-03T03:23:29.413Z,50.43
2018-12-03T03:25:59.822Z,52.90
2018-12-03T03:28:30.285Z,52.90
2018-12-03T03:31:00.863Z,49.33
2018-12-03T03:33:31.181Z,55.23
2018-12-03T03:36:01.540Z,55.07
2018-12-03T03:38:32.104Z,52.07
2018-12-03T03:41:02.503Z,50.60
2018-12-03T03:43:32.797Z,49.73
2018-12-03T03:46:03.224Z,52.10
2018-12-03T03:48:33.643Z,55.00
2018-12-03T03:51:03.792Z,51.10
2018-12-03T03:53:34.127Z,51.73
2018-12-03T03:56:04.310Z,52.20
2018-12-03T03:58:34.902Z,54.20
2018-12-03T04:01:05.303Z,52.30
2018-12-03T04:03:35.508Z,53.13
2018-12-03T04:06:05.717Z,51.77
2018-12-03T04:08:36.197Z,52.90
2018-12-03T04:11:06.958Z,50.27
2018-12-03T04:13:37.496Z,50.93
2018-12-03T04:16:07.898Z,52.60
2018-12-03T04:18:38.049Z,50.00
2018-12-03T04:21:08.448Z,50.40
2018-12-03T04:23:38.854Z,52.17
2018-12-03T04:26:09.226Z,50.80
2018-12-03T04:28:39.590Z,53.77
2018-12-03T04:31:09.954Z,51.50
2018-12-03T04:33:40.337Z,52.20
2018-12-03T04:36:10.760Z,51.07
2018-12-03T04:38:41.132Z,49.63
2018-12-03T04:41:11.311Z,50.63
2018-12-03T04:43:41.663Z,50.70
2018-12-03T04:46:11.996Z,48.57
2018-12-03T04:48:42.555Z,50.23
2018-12-03T04:51:12.856Z,49.27
2018-12-03T04:53:43.160Z,51.30
2018-12-03T04:56:13.470Z,52.80
2018-12-03T04:58:43.901Z,47.50
2018-12-03T05:01:14.054Z,49.80
2018-12-03T05:03:44.402Z,50.53
2018-12-03T05:06:14.458Z,48.67
2018-12-03T05:08:44.697Z,51.10
2018-12-03T05:11:14.981Z,50.27
2018-12-03T05:13:45.327Z,50.67
2018-12-03T05:16:15.654Z,51.60
2018-12-03T05:18:45.904Z,51.17
2018-12-03T05:21:16.238Z,53.00
2018-12-03T05:23:46.638Z,50.27
2018-12-03T05:26:17.053Z,50.03
2018-12-03T05:28:47.361Z,48.23
2018-12-03T05:31:22.888Z,49.63
2018-12-03T05:33:53.162Z,49.00
2018-12-03T05:36:23.620Z,51.20
2018-12-03T05:38:53.781Z,49.80
2018-12-03T05:41:24.220Z,46.83
2018-12-03T05:43:54.551Z,48.17
2018-12-03T05:46:24.890Z,50.13
2018-12-03T05:48:55.210Z,51.13
2018-12-03T05:51:25.464Z,54.80
2018-12-03T05:53:55.762Z,58.77
2018-12-03T05:56:26.180Z,59.90
2018-12-03T05:58:56.378Z,54.03
2018-12-03T06:01:26.875Z,59.30
2018-12-03T06:03:57.055Z,54.50
2018-12-03T06:06:27.365Z,52.00
2018-12-03T06:08:57.729Z,51.10
2018-12-03T06:11:28.124Z,52.50
2018-12-03T06:13:58.438Z,53.77
2018-12-03T06:16:28.877Z,49.97
2018-12-03T06:18:59.259Z,51.20
2018-12-03T06:21:29.724Z,51.40
2018-12-03T06:24:00.916Z,48.20
2018-12-03T06:26:31.193Z,51.50
2018-12-03T06:29:01.542Z,51.93
2018-12-03T06:31:31.971Z,49.87
2018-12-03T06:34:02.276Z,52.70
2018-12-03T06:36:32.638Z,51.20
2018-12-03T06:39:03.141Z,54.53
2018-12-03T06:41:33.328Z,49.37
2018-12-03T06:44:03.588Z,53.90
2018-12-03T06:46:33.996Z,53.00
2018-12-03T06:49:04.442Z,49.40
2018-12-03T06:51:34.588Z,56.40
2018-12-03T06:54:05.090Z,53.70
2018-12-03T06:56:35.508Z,56.90
2018-12-03T06:59:06.083Z,56.83
2018-12-03T07:01:36.294Z,55.00
2018-12-03T07:04:06.978Z,55.80
2018-12-03T07:06:37.490Z,55.60
2018-12-03T07:09:11.899Z,60.53
2018-12-03T07:11:42.923Z,55.70
2018-12-03T07:14:13.282Z,56.20
2018-12-03T07:16:43.673Z,55.90
2018-12-03T07:19:14.081Z,53.90
2018-12-03T07:21:44.563Z,53.43
2018-12-03T07:24:14.810Z,53.33
2018-12-03T07:26:45.189Z,56.17
2018-12-03T07:29:15.661Z,52.43
2018-12-03T07:31:46.094Z,55.20
2018-12-03T07:34:16.296Z,54.07
2018-12-03T07:36:46.640Z,54.97
2018-12-03T07:39:17.020Z,53.67
2018-12-03T07:41:47.326Z,57.27
2018-12-03T07:44:17.681Z,54.10
2018-12-03T07:46:48.243Z,54.73
2018-12-03T07:49:18.706Z,55.10
2018-12-03T07:51:48.941Z,51.57
2018-12-03T07:54:19.258Z,55.70
2018-12-03T07:56:49.561Z,53.20
2018-12-03T07:59:19.730Z,54.93
2018-12-03T08:01:50.076Z,53.00
2018-12-03T08:04:20.821Z,55.40
2018-12-03T08:06:51.164Z,55.53
2018-12-03T08:09:21.438Z,52.17
2018-12-03T08:11:51.467Z,53.57
2018-12-03T08:14:21.753Z,54.67
2018-12-03T08:16:52.011Z,50.53
2018-12-03T08:19:22.406Z,51.57
2018-12-03T08:21:52.638Z,54.57
2018-12-03T08:24:22.975Z,51.47
2018-12-03T08:26:53.153Z,48.10
2018-12-03T08:29:23.573Z,46.67
2018-12-03T08:31:53.977Z,49.40
2018-12-03T08:34:24.349Z,48.20
2018-12-03T08:36:54.647Z,49.63
2018-12-03T08:39:25.088Z,48.40
2018-12-03T08:41:55.250Z,49.17
2018-12-03T08:44:30.293Z,52.20
2018-12-03T08:47:08.023Z,48.97
2018-12-03T08:49:38.830Z,46.47
2018-12-03T08:52:13.132Z,50.13
2018-12-03T08:54:43.290Z,51.47
2018-12-03T08:57:13.732Z,47.70
2018-12-03T08:59:44.059Z,43.47
2018-12-03T09:02:14.367Z,40.30
2018-12-03T09:04:44.772Z,44.10
2018-12-03T09:07:15.046Z,44.27
2018-12-03T09:09:45.424Z,41.30
2018-12-03T09:12:15.669Z,43.30
2018-12-03T09:14:46.030Z,42.87
2018-12-03T09:17:16.378Z,43.87
2018-12-03T09:19:51.121Z,43.13
2018-12-03T09:22:21.242Z,42.97
2018-12-03T09:24:51.533Z,37.73
2018-12-03T09:27:28.388Z,39.57
2018-12-03T09:30:00.885Z,41.60
2018-12-03T09:32:34.817Z,39.37
2018-12-03T09:35:07.077Z,38.17
2018-12-03T09:37:37.212Z,40.60
2018-12-03T09:40:15.714Z,39.40
2018-12-03T09:42:46.126Z,40.30
2018-12-03T09:45:17.778Z,40.40
2018-12-03T09:47:48.553Z,42.10
2018-12-03T09:50:27.466Z,39.00
2018-12-03T09:52:58.119Z,42.30
2018-12-03T09:55:30.039Z,42.40
2018-12-03T09:58:13.135Z,40.00
2018-12-03T10:00:43.923Z,44.93
2018-12-03T10:03:34.319Z,41.17
2018-12-03T10:06:11.593Z,39.97
2018-12-03T10:08:41.868Z,38.57
2018-12-03T10:11:12.336Z,39.90
2018-12-03T10:13:42.646Z,38.10
2018-12-03T10:16:12.950Z,39.07
2018-12-03T10:18:47.791Z,39.27
2018-12-03T10:21:18.077Z,46.70
2018-12-03T10:23:48.474Z,42.00
2018-12-03T10:26:18.760Z,43.70
2018-12-03T10:28:49.017Z,47.87
2018-12-03T10:31:19.270Z,50.33
2018-12-03T10:33:49.514Z,38.93
2018-12-03T10:36:19.738Z,38.87
2018-12-03T10:38:50.484Z,36.60
2018-12-03T10:41:32.201Z,35.20
2018-12-03T10:44:03.562Z,35.37
2018-12-03T10:46:33.701Z,34.90
2018-12-03T10:49:08.224Z,35.10
2018-12-03T10:51:38.813Z,32.30
2018-12-03T10:54:09.233Z,35.10
2018-12-03T10:56:39.424Z,31.30
2018-12-03T10:59:09.737Z,33.17
2018-12-03T11:01:47.176Z,31.60
2018-12-03T11:04:22.266Z,37.00
2018-12-03T11:06:52.683Z,38.57
2018-12-03T11:09:25.377Z,35.83
2018-12-03T11:11:55.825Z,36.90
2018-12-03T11:14:26.002Z,38.10
2018-12-03T11:16:56.336Z,36.50
2018-12-03T11:19:26.814Z,34.90
2018-12-03T11:21:57.244Z,36.13
2018-12-03T11:24:27.564Z,36.23
2018-12-03T11:27:00.172Z,34.80
2018-12-03T11:29:30.874Z,34.30
2018-12-03T11:32:01.215Z,34.57
2018-12-03T11:34:31.573Z,34.93
2018-12-03T11:37:02.902Z,34.77
2018-12-03T11:39:45.830Z,33.07
2018-12-03T11:42:16.350Z,31.33
2018-12-03T11:44:46.640Z,32.07
2018-12-03T11:47:17.037Z,30.73
2018-12-03T11:49:47.197Z,32.13
2018-12-03T11:52:17.642Z,30.30
2018-12-03T11:54:47.941Z,30.83
2018-12-03T11:57:18.141Z,28.30
2018-12-03T11:59:48.505Z,27.97
2018-12-03T12:02:18.956Z,29.43
2018-12-03T12:04:49.348Z,29.90
2018-12-03T12:07:19.481Z,29.60
2018-12-03T12:09:49.738Z,27.03
2018-12-03T12:12:20.048Z,24.63
2018-12-03T12:14:50.232Z,31.70
2018-12-03T12:17:20.375Z,28.00
2018-12-03T12:19:50.668Z,28.70
2018-12-03T12:22:20.867Z,28.60
2018-12-03T12:24:51.008Z,29.20
2018-12-03T12:27:21.422Z,29.60
2018-12-03T12:29:51.666Z,29.90
2018-12-03T12:32:21.928Z,30.37
2018-12-03T12:34:52.213Z,29.40
2018-12-03T12:37:22.678Z,28.80
2018-12-03T12:39:52.929Z,30.53
2018-12-03T12:42:23.270Z,29.30
2018-12-03T12:44:59.588Z,29.30
2018-12-03T12:47:29.485Z,27.70
2018-12-03T12:49:59.953Z,27.47
2018-12-03T12:52:30.121Z,29.33
2018-12-03T12:55:00.453Z,32.07
2018-12-03T12:57:30.837Z,29.93
2018-12-03T13:00:01.093Z,32.73
2018-12-03T13:02:31.458Z,33.43
2018-12-03T13:05:01.705Z,34.17
2018-12-03T13:07:32.101Z,29.80
2018-12-03T13:10:02.397Z,28.33
2018-12-03T13:12:32.600Z,28.60
2018-12-03T13:15:03.005Z,28.70
2018-12-03T13:17:33.396Z,29.00
2018-12-03T13:20:03.810Z,28.20
2018-12-03T13:22:37.876Z,27.97
2018-12-03T13:25:16.501Z,28.90
2018-12-03T13:27:46.969Z,28.10
2018-12-03T13:30:17.874Z,28.47
2018-12-03T13:32:48.617Z,27.80
2018-12-03T13:35:18.904Z,28.10
2018-12-03T13:37:49.077Z,29.60
2018-12-03T13:40:19.472Z,27.20
2018-12-03T13:42:49.861Z,27.97
2018-12-03T13:45:24.026Z,28.40
2018-12-03T13:47:56.278Z,28.00
2018-12-03T13:50:26.828Z,26.37
2018-12-03T13:52:57.357Z,24.83
2018-12-03T13:55:27.531Z,22.57
2018-12-03T13:57:57.955Z,22.30
2018-12-03T14:00:28.433Z,22.33
2018-12-03T14:03:08.433Z,21.70
2018-12-03T14:05:51.583Z,22.40
2018-12-03T14:09:50.949Z,23.40
2018-12-03T14:12:37.531Z,24.10
2018-12-03T14:15:27.557Z,22.50
2018-12-03T14:18:16.301Z,22.90
2018-12-03T14:20:49.686Z,22.33
2018-12-03T14:23:25.553Z,23.90
2018-12-03T14:25:55.969Z,22.57
2018-12-03T14:28:27.267Z,22.77
2018-12-03T14:30:57.668Z,24.40
2018-12-03T14:33:28.032Z,24.30
2018-12-03T14:35:58.513Z,24.27
2018-12-03T14:38:29.812Z,31.63
2018-12-03T14:41:00.197Z,26.57
2018-12-03T14:43:30.375Z,29.30
2018-12-03T14:46:00.840Z,29.23
2018-12-03T14:48:31.242Z,29.87
2018-12-03T14:51:01.451Z,21.97
2018-12-03T14:53:31.828Z,23.80
2018-12-03T14:56:02.241Z,22.47
2018-12-03T14:58:32.586Z,22.03
2018-12-03T15:01:02.893Z,24.60
2018-12-03T15:03:33.226Z,23.40
2018-12-03T15:06:03.607Z,26.43
2018-12-03T15:08:33.791Z,25.50
2018-12-03T15:11:04.185Z,30.47
2018-12-03T15:13:34.378Z,27.57
2018-12-03T15:16:04.841Z,26.23
2018-12-03T15:18:35.251Z,27.47
2018-12-03T15:21:05.523Z,28.07
2018-12-03T15:23:35.872Z,26.73
2018-12-03T15:26:06.384Z,26.93
2018-12-03T15:28:36.579Z,24.43
2018-12-03T15:31:06.909Z,24.13
2018-12-03T15:33:37.397Z,27.67
2018-12-03T15:36:07.605Z,28.30
2018-12-03T15:38:37.992Z,26.33
2018-12-03T15:41:09.060Z,25.77
2018-12-03T15:43:40.534Z,25.97
2018-12-03T15:46:10.877Z,27.80
2018-12-03T15:48:41.057Z,27.13
2018-12-03T15:51:11.626Z,26.10
2018-12-03T15:53:42.054Z,25.40
2018-12-03T15:56:12.447Z,25.20
2018-12-03T15:58:42.737Z,28.40
2018-12-03T16:01:14.490Z,26.73
2018-12-03T16:03:43.536Z,25.37
2018-12-03T16:06:13.991Z,26.90
2018-12-03T16:08:44.150Z,24.77
2018-12-03T16:11:14.522Z,26.57
2018-12-03T16:13:44.881Z,28.43
2018-12-03T16:16:15.197Z,28.80
2018-12-03T16:18:45.369Z,28.07
2018-12-03T16:21:15.722Z,26.30
2018-12-03T16:23:46.032Z,26.77
2018-12-03T16:26:16.471Z,26.30
2018-12-03T16:28:47.495Z,28.63
2018-12-03T16:31:17.801Z,26.50
2018-12-03T16:33:48.202Z,28.70
2018-12-03T16:36:18.597Z,26.17
2018-12-03T16:38:48.935Z,25.53
2018-12-03T16:41:19.083Z,26.13
2018-12-03T16:43:49.386Z,25.60
2018-12-03T16:46:19.735Z,27.27
2018-12-03T16:48:49.943Z,28.67
2018-12-03T16:51:20.303Z,26.57
2018-12-03T16:53:50.699Z,28.10
2018-12-03T16:56:20.781Z,26.87
2018-12-03T16:58:51.041Z,25.73
2018-12-03T17:01:21.365Z,26.13
2018-12-03T17:03:51.977Z,25.13
2018-12-03T17:06:22.509Z,26.20
2018-12-03T17:08:52.929Z,27.30
2018-12-03T17:11:23.236Z,27.03
2018-12-03T17:13:53.485Z,26.30
2018-12-03T17:16:23.794Z,26.80
2018-12-03T17:18:54.197Z,26.70
2018-12-03T17:22:04.264Z,26.40
2018-12-03T17:24:38.002Z,29.13
2018-12-03T17:27:08.528Z,31.33
2018-12-03T17:29:38.752Z,23.57
2018-12-03T17:32:09.048Z,18.60
2018-12-03T17:34:39.401Z,24.13
2018-12-03T17:37:09.775Z,25.03
2018-12-03T17:39:40.015Z,18.57
2018-12-03T17:42:10.244Z,17.90
2018-12-03T17:44:40.618Z,14.70
2018-12-03T17:47:11.022Z,14.17
2018-12-03T17:49:41.310Z,12.73
2018-12-03T17:52:11.686Z,12.10
2018-12-03T17:54:41.982Z,11.60
2018-12-03T17:57:12.552Z,11.50
2018-12-03T17:59:42.785Z,12.77
2018-12-03T18:02:13.180Z,12.40
2018-12-03T18:04:43.599Z,13.33
2018-12-03T18:07:14.044Z,13.10
2018-12-03T18:09:44.379Z,15.97
2018-12-03T18:12:14.956Z,16.73
2018-12-03T18:14:45.379Z,17.30
2018-12-03T18:17:15.835Z,20.10
2018-12-03T18:19:46.209Z,19.00
2018-12-03T18:22:16.534Z,20.83
2018-12-03T18:24:46.894Z,19.90
2018-12-03T18:27:17.236Z,18.17
2018-12-03T18:29:47.673Z,18.20
2018-12-03T18:32:17.994Z,18.80
2018-12-03T18:34:48.279Z,16.23
2018-12-03T18:37:18.755Z,18.17
2018-12-03T18:39:49.004Z,16.80
2018-12-03T18:42:19.336Z,17.63
2018-12-03T18:44:49.804Z,16.80
2018-12-03T18:47:20.101Z,16.30
2018-12-03T18:49:53.410Z,16.03
2018-12-03T18:52:24.585Z,19.53
2018-12-03T18:54:54.975Z,18.80
2018-12-03T18:57:25.426Z,22.27
2018-12-03T18:59:55.875Z,25.50
2018-12-03T19:02:26.186Z,21.27
2018-12-03T19:04:56.490Z,21.70
2018-12-03T19:07:26.902Z,18.53
2018-12-03T19:09:57.333Z,20.27
2018-12-03T19:12:27.562Z,20.37
2018-12-03T19:14:57.948Z,21.40
2018-12-03T19:17:28.334Z,22.70
2018-12-03T19:19:58.760Z,22.70
2018-12-03T19:22:29.181Z,21.73
2018-12-03T19:24:59.421Z,22.47
2018-12-03T19:27:29.717Z,21.50
2018-12-03T19:30:00.113Z,23.37
2018-12-03T19:32:30.512Z,22.13
2018-12-03T19:35:00.862Z,20.13
2018-12-03T19:37:31.149Z,21.70
2018-12-03T19:40:01.431Z,20.80
2018-12-03T19:42:31.810Z,19.07
2018-12-03T19:45:02.164Z,20.30
2018-12-03T19:47:32.383Z,18.83
2018-12-03T19:50:02.785Z,22.47
2018-12-03T19:52:33.197Z,22.10
2018-12-03T19:55:04.097Z,25.17
2018-12-03T19:57:35.803Z,27.20
2018-12-03T20:00:09.624Z,18.70
2018-12-03T20:02:40.018Z,22.33
2018-12-03T20:05:18.207Z,18.10
2018-12-03T20:07:48.534Z,14.97
2018-12-03T20:10:18.924Z,14.50
2018-12-03T20:12:49.283Z,14.27
2018-12-03T20:15:19.594Z,12.70
2018-12-03T20:17:49.997Z,9.87
2018-12-03T20:20:27.305Z,11.20
2018-12-03T20:23:04.367Z,15.57
2018-12-03T20:25:48.156Z,12.37
2018-12-03T20:28:26.045Z,27.90
2018-12-03T20:33:07.394Z,35.00
2018-12-03T20:36:19.806Z,13.17
2018-12-03T20:39:35.501Z,29.17
2018-12-03T20:42:06.437Z,13.60
2018-12-03T20:44:52.473Z,10.10
2018-12-03T20:47:30.134Z,13.73
2018-12-03T20:50:45.046Z,11.70
2018-12-03T20:53:19.249Z,10.23
2018-12-03T20:55:50.038Z,11.67
2018-12-03T20:58:20.715Z,14.40
2018-12-03T21:00:51.368Z,14.20
2018-12-03T21:03:21.595Z,11.00
2018-12-03T21:05:51.974Z,14.60
2018-12-03T21:08:22.485Z,10.30
2018-12-03T21:10:52.987Z,10.40
2018-12-03T21:13:23.541Z,9.17
2018-12-03T21:15:55.175Z,10.97
2018-12-03T21:18:26.021Z,9.90
2018-12-03T21:20:56.519Z,8.60
2018-12-03T21:23:27.113Z,10.70
2018-12-03T21:25:57.778Z,9.43
2018-12-03T21:28:28.358Z,9.43
2018-12-03T21:30:58.597Z,10.97
2018-12-03T21:33:29.031Z,13.60
2018-12-03T21:35:59.658Z,9.93
2018-12-03T21:38:30.037Z,7.80
2018-12-03T21:41:00.328Z,9.43
2018-12-03T21:43:30.718Z,9.97
2018-12-03T21:46:00.991Z,10.47
2018-12-03T21:48:31.385Z,10.60
2018-12-03T21:51:01.809Z,10.70
2018-12-03T21:53:32.437Z,8.50
2018-12-03T21:56:02.715Z,8.10
2018-12-03T21:58:32.929Z,8.13
2018-12-03T22:01:03.250Z,8.37
2018-12-03T22:03:33.513Z,8.53
2018-12-03T22:06:03.925Z,8.60
2018-12-03T22:08:34.486Z,8.20
2018-12-03T22:11:04.846Z,9.40
2018-12-03T22:13:35.194Z,9.70
2018-12-03T22:16:05.626Z,10.57
2018-12-03T22:18:36.000Z,9.97
2018-12-03T22:21:06.382Z,9.20
2018-12-03T22:23:36.804Z,14.30
2018-12-03T22:26:07.176Z,17.27
2018-12-03T22:28:37.659Z,18.33
2018-12-03T22:31:08.133Z,16.97
2018-12-03T22:33:38.792Z,21.80
2018-12-03T22:36:09.356Z,26.30
2018-12-03T22:38:39.625Z,31.60
2018-12-03T22:41:09.994Z,29.20
2018-12-03T22:43:40.575Z,29.40
2018-12-03T22:46:10.981Z,25.70
2018-12-03T22:48:41.419Z,17.53
2018-12-03T22:51:11.766Z,21.43
2018-12-03T22:53:42.136Z,20.20
2018-12-03T22:56:12.556Z,18.80
2018-12-03T22:58:42.997Z,19.10
2018-12-03T23:01:13.255Z,17.53
2018-12-03T23:03:43.572Z,16.70
2018-12-03T23:06:14.005Z,16.57
2018-12-03T23:08:44.148Z,17.23
2018-12-03T23:11:14.499Z,17.60
2018-12-03T23:13:44.816Z,17.63
2018-12-03T23:16:15.225Z,18.60
2018-12-03T23:18:45.476Z,17.40
2018-12-03T23:21:15.956Z,15.97
2018-12-03T23:23:46.230Z,15.50
2018-12-03T23:26:16.501Z,16.33
2018-12-03T23:28:46.791Z,16.33
2018-12-03T23:31:17.194Z,16.03
2018-12-03T23:33:47.700Z,16.40
2018-12-03T23:36:18.566Z,15.50
2018-12-03T23:38:48.848Z,16.97
2018-12-03T23:41:19.736Z,16.30
2018-12-03T23:43:49.944Z,18.00
2018-12-03T23:46:20.790Z,16.33
2018-12-03T23:48:51.008Z,17.40
2018-12-03T23:51:21.184Z,15.90
2018-12-03T23:53:51.376Z,15.10
2018-12-03T23:56:21.625Z,14.37
2018-12-03T23:58:52.091Z,15.10
